createdAt,value
2023-04-09T00:00:44.331Z,56.00
2023-04-09T00:03:11.488Z,56.00
2023-04-09T00:05:41.606Z,56.40
2023-04-09T00:08:08.506Z,56.30
2023-04-09T00:10:35.561Z,55.80
2023-04-09T00:13:02.492Z,55.30
2023-04-09T00:15:31.488Z,55.90
2023-04-09T00:17:59.426Z,54.50
2023-04-09T00:20:26.479Z,55.10
2023-04-09T00:22:54.209Z,53.90
2023-04-09T00:25:21.190Z,53.90
2023-04-09T00:27:47.980Z,53.90
2023-04-09T00:30:14.824Z,53.80
2023-04-09T00:32:41.788Z,53.20
2023-04-09T00:35:09.173Z,52.80
2023-04-09T00:37:36.210Z,52.50
2023-04-09T00:40:03.439Z,52.80
2023-04-09T00:42:37.362Z,53.10
2023-04-09T00:45:05.094Z,53.50
2023-04-09T00:47:32.283Z,53.80
2023-04-09T00:50:00.475Z,53.80
2023-04-09T00:52:27.808Z,53.40
2023-04-09T00:54:55.291Z,54.10
2023-04-09T00:57:22.291Z,54.90
2023-04-09T00:59:49.169Z,54.90
2023-04-09T01:02:16.065Z,55.20
2023-04-09T01:04:43.945Z,55.20
2023-04-09T01:07:20.249Z,56.10
2023-04-09T01:10:08.738Z,56.30
2023-04-09T01:13:26.584Z,55.60
2023-04-09T01:15:57.297Z,55.40
2023-04-09T01:18:39.350Z,55.90
2023-04-09T01:21:13.251Z,55.80
2023-04-09T01:23:39.973Z,55.70
2023-04-09T01:26:15.687Z,55.80
2023-04-09T01:28:49.116Z,55.50
2023-04-09T01:31:18.924Z,55.10
2023-04-09T01:33:46.520Z,54.40
2023-04-09T01:36:14.540Z,55.70
2023-04-09T01:38:43.222Z,56.40
2023-04-09T01:41:17.283Z,56.30
2023-04-09T01:43:44.560Z,56.30
2023-04-09T01:46:12.280Z,56.20
2023-04-09T01:48:39.527Z,56.70
2023-04-09T01:51:06.402Z,56.90
2023-04-09T01:53:33.206Z,56.70
2023-04-09T01:56:01.662Z,57.00
2023-04-09T01:58:28.852Z,57.20
2023-04-09T02:01:30.512Z,57.60
2023-04-09T02:04:02.659Z,56.90
2023-04-09T02:06:40.120Z,57.60
2023-04-09T02:09:09.402Z,58.00
2023-04-09T02:11:40.415Z,57.90
2023-04-09T02:14:11.466Z,58.10
2023-04-09T02:16:39.447Z,58.50
2023-04-09T02:19:06.386Z,58.30
2023-04-09T02:21:33.254Z,58.90
2023-04-09T02:24:00.111Z,58.80
2023-04-09T02:26:27.035Z,59.00
2023-04-09T02:28:54.234Z,59.50
2023-04-09T02:31:21.437Z,59.30
2023-04-09T02:33:48.232Z,59.40
2023-04-09T02:36:15.468Z,59.70
2023-04-09T02:38:42.845Z,59.70
2023-04-09T02:41:10.459Z,60.30
2023-04-09T02:43:37.505Z,60.50
2023-04-09T02:46:04.862Z,61.00
2023-04-09T02:48:31.644Z,61.30
2023-04-09T02:50:59.298Z,60.90
2023-04-09T02:53:26.402Z,60.90
2023-04-09T02:55:53.232Z,61.20
2023-04-09T02:58:20.105Z,60.80
2023-04-09T03:00:46.822Z,60.90
2023-04-09T03:03:13.968Z,61.00
2023-04-09T03:05:41.029Z,61.50
2023-04-09T03:08:07.791Z,61.00
2023-04-09T03:10:34.521Z,60.80
2023-04-09T03:13:01.351Z,60.60
2023-04-09T03:15:28.275Z,60.60
2023-04-09T03:17:55.062Z,60.60
2023-04-09T03:20:22.109Z,60.60
2023-04-09T03:22:49.053Z,60.70
2023-04-09T03:25:15.900Z,60.90
2023-04-09T03:27:42.649Z,60.70
2023-04-09T03:30:10.190Z,60.80
2023-04-09T03:32:36.988Z,60.80
2023-04-09T03:35:04.005Z,60.40
2023-04-09T03:37:30.783Z,60.20
2023-04-09T03:39:57.694Z,60.40
2023-04-09T03:42:24.612Z,61.10
2023-04-09T03:44:54.487Z,62.00
2023-04-09T03:47:21.320Z,62.00
2023-04-09T03:49:48.119Z,62.70
2023-04-09T03:52:14.923Z,62.70
2023-04-09T03:54:43.946Z,62.60
2023-04-09T03:57:10.746Z,62.90
2023-04-09T03:59:37.687Z,62.40
2023-04-09T04:02:04.673Z,62.50
2023-04-09T04:04:31.613Z,62.40
2023-04-09T04:06:58.533Z,62.60
2023-04-09T04:09:25.488Z,62.00
2023-04-09T04:11:52.382Z,61.90
2023-04-09T04:14:19.219Z,61.80
2023-04-09T04:16:46.333Z,61.80
2023-04-09T04:19:16.074Z,61.70
2023-04-09T04:21:42.858Z,61.70
2023-04-09T04:24:09.807Z,61.60
2023-04-09T04:26:36.593Z,62.30
2023-04-09T04:29:03.702Z,62.20
2023-04-09T04:31:31.010Z,62.40
2023-04-09T04:33:57.899Z,62.20
2023-04-09T04:36:24.669Z,62.20
2023-04-09T04:38:51.908Z,62.40
2023-04-09T04:41:19.104Z,62.00
2023-04-09T04:43:47.348Z,62.00
2023-04-09T04:46:16.241Z,62.00
2023-04-09T04:48:43.250Z,62.10
2023-04-09T04:51:10.072Z,61.60
2023-04-09T04:53:36.853Z,61.80
2023-04-09T04:56:03.991Z,61.90
2023-04-09T04:58:31.210Z,61.90
2023-04-09T05:00:58.102Z,61.70
2023-04-09T05:03:27.610Z,61.50
2023-04-09T05:05:54.843Z,61.70
2023-04-09T05:08:21.793Z,61.80
2023-04-09T05:10:48.789Z,61.70
2023-04-09T05:13:15.713Z,61.30
2023-04-09T05:15:43.601Z,61.20
2023-04-09T05:18:10.661Z,61.70
2023-04-09T05:20:37.563Z,61.90
2023-04-09T05:23:04.684Z,62.20
2023-04-09T05:25:31.703Z,62.40
2023-04-09T05:27:58.589Z,62.50
2023-04-09T05:30:25.570Z,62.10
2023-04-09T05:32:52.618Z,62.10
2023-04-09T05:35:19.687Z,62.20
2023-04-09T05:37:46.697Z,61.70
2023-04-09T05:40:14.928Z,62.10
2023-04-09T05:42:41.822Z,61.40
2023-04-09T05:45:09.617Z,60.80
2023-04-09T05:47:36.890Z,60.60
2023-04-09T05:50:04.491Z,60.50
2023-04-09T05:52:31.442Z,60.40
2023-04-09T05:54:58.569Z,59.10
2023-04-09T05:57:25.539Z,59.00
2023-04-09T05:59:52.434Z,58.60
2023-04-09T06:02:19.428Z,58.40
2023-04-09T06:04:46.455Z,58.20
2023-04-09T06:07:13.510Z,58.60
2023-04-09T06:09:40.642Z,58.80
2023-04-09T06:12:07.557Z,58.80
2023-04-09T06:14:34.576Z,58.80
2023-04-09T06:17:01.629Z,59.00
2023-04-09T06:19:28.893Z,58.70
2023-04-09T06:21:56.109Z,58.60
2023-04-09T06:24:23.388Z,59.00
2023-04-09T06:26:50.379Z,59.40
2023-04-09T06:29:17.359Z,59.10
2023-04-09T06:31:44.338Z,59.40
2023-04-09T06:34:11.404Z,59.60
2023-04-09T06:36:40.516Z,59.60
2023-04-09T06:39:07.659Z,60.20
2023-04-09T06:41:34.694Z,59.70
2023-04-09T06:44:01.800Z,58.90
2023-04-09T06:46:28.927Z,59.10
2023-04-09T06:48:55.872Z,59.10
2023-04-09T06:51:22.918Z,57.00
2023-04-09T06:53:49.950Z,57.10
2023-04-09T06:56:17.118Z,56.90
2023-04-09T06:58:44.228Z,56.90
2023-04-09T07:01:13.089Z,56.40
2023-04-09T07:03:40.786Z,56.00
2023-04-09T07:06:07.779Z,54.90
2023-04-09T07:08:34.659Z,54.50
2023-04-09T07:11:01.826Z,53.90
2023-04-09T07:16:00.858Z,50.80
2023-04-09T07:18:27.734Z,50.00
2023-04-09T07:20:55.425Z,49.20
2023-04-09T07:23:22.952Z,48.20
2023-04-09T07:25:49.881Z,46.70
2023-04-09T07:28:16.756Z,46.40
2023-04-09T07:30:43.651Z,46.20
2023-04-09T07:33:10.555Z,45.80
2023-04-09T07:35:37.756Z,44.90
2023-04-09T07:38:04.696Z,42.40
2023-04-09T07:40:31.671Z,41.40
2023-04-09T07:42:58.675Z,41.50
2023-04-09T07:45:26.082Z,41.20
2023-04-09T07:47:54.226Z,40.70
2023-04-09T07:50:21.266Z,40.00
2023-04-09T07:52:48.208Z,39.80
2023-04-09T07:55:16.290Z,40.20
2023-04-09T07:57:45.343Z,40.40
2023-04-09T08:00:12.960Z,40.00
2023-04-09T08:02:40.165Z,39.40
2023-04-09T08:05:08.145Z,40.20
2023-04-09T08:07:35.231Z,39.70
2023-04-09T08:10:02.178Z,39.50
2023-04-09T08:12:29.198Z,40.10
2023-04-09T08:14:56.205Z,39.70
2023-04-09T08:17:23.570Z,38.80
2023-04-09T08:19:50.805Z,39.20
2023-04-09T08:22:17.772Z,38.90
2023-04-09T08:24:44.728Z,40.40
2023-04-09T08:27:11.584Z,41.30
2023-04-09T08:29:40.619Z,40.80
2023-04-09T08:32:08.868Z,41.40
2023-04-09T08:34:36.015Z,41.10
2023-04-09T08:37:02.886Z,41.50
2023-04-09T08:39:30.028Z,41.80
2023-04-09T08:42:02.558Z,42.00
2023-04-09T08:44:29.911Z,41.10
2023-04-09T08:46:58.460Z,40.90
2023-04-09T08:49:26.592Z,38.20
2023-04-09T08:51:53.450Z,37.10
2023-04-09T08:54:20.458Z,37.40
2023-04-09T08:56:47.714Z,37.70
2023-04-09T08:59:21.040Z,36.00
2023-04-09T09:01:52.840Z,37.30
2023-04-09T09:04:19.862Z,36.70
2023-04-09T09:06:46.914Z,37.00
2023-04-09T09:09:16.211Z,34.90
2023-04-09T09:11:48.713Z,36.80
2023-04-09T09:14:17.420Z,35.70
2023-04-09T09:16:56.350Z,36.50
2023-04-09T09:19:31.546Z,36.70
2023-04-09T09:22:05.280Z,36.80
2023-04-09T09:24:34.010Z,36.20
2023-04-09T09:27:02.694Z,34.60
2023-04-09T09:29:31.929Z,35.90
2023-04-09T09:31:59.064Z,37.10
2023-04-09T09:34:26.137Z,36.10
2023-04-09T09:36:53.435Z,37.20
2023-04-09T09:39:22.353Z,37.90
2023-04-09T09:42:06.697Z,37.00
2023-04-09T09:44:33.846Z,36.30
2023-04-09T09:47:03.474Z,36.00
2023-04-09T09:49:30.523Z,35.70
2023-04-09T09:51:59.561Z,36.90
2023-04-09T09:54:32.231Z,34.40
2023-04-09T09:57:04.795Z,33.40
2023-04-09T09:59:37.738Z,34.50
2023-04-09T10:02:18.634Z,33.90
2023-04-09T10:04:45.962Z,33.40
2023-04-09T10:07:14.726Z,33.20
2023-04-09T10:09:45.465Z,32.50
2023-04-09T10:12:12.673Z,32.50
2023-04-09T10:14:41.564Z,31.90
2023-04-09T10:17:08.486Z,32.10
2023-04-09T10:19:43.536Z,32.00
2023-04-09T10:22:18.143Z,31.50
2023-04-09T10:24:46.096Z,30.40
2023-04-09T10:27:16.782Z,30.60
2023-04-09T10:29:46.257Z,30.90
2023-04-09T10:32:17.690Z,30.70
2023-04-09T10:34:45.243Z,30.70
2023-04-09T10:37:23.357Z,30.80
2023-04-09T10:39:53.668Z,30.90
2023-04-09T10:42:27.803Z,30.90
2023-04-09T10:45:14.364Z,30.10
2023-04-09T10:47:43.361Z,30.80
2023-04-09T10:50:17.632Z,30.20
2023-04-09T10:52:44.939Z,30.30
2023-04-09T10:55:36.247Z,30.00
2023-04-09T10:58:07.946Z,30.50
2023-04-09T11:00:41.068Z,30.10
2023-04-09T11:03:24.171Z,30.20
2023-04-09T11:06:00.107Z,30.10
2023-04-09T11:08:32.137Z,29.70
2023-04-09T11:11:01.291Z,30.00
2023-04-09T11:13:29.468Z,29.90
2023-04-09T11:15:57.014Z,30.20
2023-04-09T11:18:29.065Z,30.10
2023-04-09T11:20:56.695Z,30.00
2023-04-09T11:23:24.985Z,30.40
2023-04-09T11:25:52.672Z,31.20
2023-04-09T11:28:20.661Z,32.40
2023-04-09T11:30:52.844Z,37.00
2023-04-09T11:33:20.563Z,39.40
2023-04-09T11:35:48.967Z,42.50
2023-04-09T11:38:16.203Z,43.40
2023-04-09T11:40:48.404Z,44.00
2023-04-09T11:43:21.091Z,41.40
2023-04-09T11:45:48.864Z,41.30
2023-04-09T11:48:18.587Z,37.80
2023-04-09T11:50:46.680Z,37.40
2023-04-09T11:53:31.712Z,37.70
2023-04-09T11:55:58.806Z,37.10
2023-04-09T11:58:26.711Z,34.90
2023-04-09T12:00:55.793Z,32.10
2023-04-09T12:03:35.121Z,32.40
2023-04-09T12:06:03.308Z,32.70
2023-04-09T12:08:31.426Z,32.00
2023-04-09T12:11:09.239Z,32.00
2023-04-09T12:13:36.226Z,32.70
2023-04-09T12:16:05.933Z,32.70
2023-04-09T12:18:37.602Z,32.40
2023-04-09T12:21:05.091Z,32.10
2023-04-09T12:23:32.488Z,32.70
2023-04-09T12:26:01.365Z,32.60
2023-04-09T12:28:28.998Z,31.70
2023-04-09T12:30:56.252Z,32.20
2023-04-09T12:33:23.159Z,31.60
2023-04-09T12:35:50.058Z,31.30
2023-04-09T12:38:16.982Z,31.90
2023-04-09T12:40:43.936Z,32.40
2023-04-09T12:43:11.288Z,32.40
2023-04-09T12:45:38.306Z,32.60
2023-04-09T12:48:05.404Z,32.30
2023-04-09T12:50:33.360Z,31.80
2023-04-09T12:53:00.440Z,29.80
2023-04-09T12:55:28.163Z,29.80
2023-04-09T12:57:55.049Z,29.90
2023-04-09T13:00:22.008Z,29.20
2023-04-09T13:02:50.038Z,29.70
2023-04-09T13:05:17.184Z,29.70
2023-04-09T13:07:44.290Z,29.60
2023-04-09T13:10:11.311Z,29.90
2023-04-09T13:12:38.313Z,29.80
2023-04-09T13:15:05.868Z,29.60
2023-04-09T13:17:32.945Z,30.70
2023-04-09T13:19:59.882Z,30.30
2023-04-09T13:22:26.856Z,29.60
2023-04-09T13:24:53.772Z,29.10
2023-04-09T13:27:20.923Z,29.00
2023-04-09T13:29:47.910Z,29.40
2023-04-09T13:32:14.754Z,29.60
2023-04-09T13:34:41.771Z,29.60
2023-04-09T13:37:08.657Z,29.20
2023-04-09T13:39:35.785Z,29.90
2023-04-09T13:42:12.578Z,29.20
2023-04-09T13:44:42.421Z,28.30
2023-04-09T13:47:11.440Z,28.70
2023-04-09T13:49:38.653Z,28.70
2023-04-09T13:52:05.952Z,28.30
2023-04-09T13:54:33.909Z,29.00
2023-04-09T13:57:01.102Z,29.40
2023-04-09T13:59:28.155Z,29.40
2023-04-09T14:01:55.326Z,29.80
2023-04-09T14:04:22.752Z,30.00
2023-04-09T14:06:49.810Z,31.40
2023-04-09T14:09:16.751Z,31.70
2023-04-09T14:11:43.830Z,31.80
2023-04-09T14:14:11.070Z,31.10
2023-04-09T14:16:38.060Z,30.70
2023-04-09T14:19:05.001Z,31.30
2023-04-09T14:21:32.235Z,31.00
2023-04-09T14:23:59.196Z,31.90
2023-04-09T14:26:26.721Z,31.30
2023-04-09T14:28:53.813Z,31.30
2023-04-09T14:31:21.705Z,31.50
2023-04-09T14:33:49.347Z,31.40
2023-04-09T14:36:16.803Z,31.50
2023-04-09T14:38:43.789Z,31.20
2023-04-09T14:41:10.566Z,31.80
2023-04-09T14:43:37.540Z,31.40
2023-04-09T14:46:06.528Z,31.10
2023-04-09T14:48:34.481Z,31.40
2023-04-09T14:51:01.773Z,31.10
2023-04-09T14:53:28.685Z,30.90
2023-04-09T14:55:56.062Z,29.90
2023-04-09T14:58:23.014Z,30.20
2023-04-09T15:00:50.436Z,30.50
2023-04-09T15:03:17.601Z,30.10
2023-04-09T15:05:44.722Z,30.50
2023-04-09T15:08:12.971Z,30.80
2023-04-09T15:10:40.116Z,31.20
2023-04-09T15:13:07.119Z,31.30
2023-04-09T15:15:34.414Z,32.00
2023-04-09T15:18:05.851Z,32.50
2023-04-09T15:20:38.696Z,32.70
2023-04-09T15:23:05.949Z,32.90
2023-04-09T15:25:33.112Z,34.00
2023-04-09T15:28:00.094Z,34.40
2023-04-09T15:30:27.210Z,34.60
2023-04-09T15:32:54.236Z,33.20
2023-04-09T15:35:25.212Z,32.10
2023-04-09T15:37:53.551Z,32.30
2023-04-09T15:40:20.635Z,31.50
2023-04-09T15:42:47.568Z,31.40
2023-04-09T15:45:18.899Z,31.50
2023-04-09T15:47:46.552Z,30.90
2023-04-09T15:50:14.426Z,32.70
2023-04-09T15:52:41.782Z,32.30
2023-04-09T15:55:09.259Z,32.50
2023-04-09T15:57:36.645Z,33.40
2023-04-09T16:00:04.006Z,33.30
2023-04-09T16:02:31.329Z,33.80
2023-04-09T16:04:58.212Z,33.10
2023-04-09T16:07:25.123Z,32.80
2023-04-09T16:09:52.117Z,33.00
2023-04-09T16:12:18.999Z,32.90
2023-04-09T16:14:46.354Z,33.30
2023-04-09T16:17:13.332Z,32.70
2023-04-09T16:19:40.505Z,32.80
2023-04-09T16:22:08.572Z,32.90
2023-04-09T16:24:35.716Z,33.60
2023-04-09T16:27:02.737Z,34.10
2023-04-09T16:29:29.706Z,33.70
2023-04-09T16:31:57.714Z,33.60
2023-04-09T16:34:25.029Z,33.00
2023-04-09T16:36:52.351Z,33.50
2023-04-09T16:39:19.736Z,33.90
2023-04-09T16:41:46.684Z,34.20
2023-04-09T16:44:13.618Z,33.40
2023-04-09T16:46:40.488Z,33.40
2023-04-09T16:49:07.469Z,33.40
2023-04-09T16:51:34.454Z,33.50
2023-04-09T16:54:01.409Z,33.80
2023-04-09T16:56:28.510Z,33.90
2023-04-09T16:58:55.741Z,34.00
2023-04-09T17:01:23.030Z,34.60
2023-04-09T17:03:50.191Z,34.00
2023-04-09T17:06:17.128Z,34.20
2023-04-09T17:08:45.764Z,33.80
2023-04-09T17:11:18.788Z,34.20
2023-04-09T17:13:45.721Z,34.20
2023-04-09T17:16:13.188Z,34.60
2023-04-09T17:18:40.253Z,34.70
2023-04-09T17:21:07.361Z,34.40
2023-04-09T17:23:34.302Z,34.30
2023-04-09T17:26:02.370Z,34.80
2023-04-09T17:28:29.188Z,35.10
2023-04-09T17:30:56.160Z,34.10
2023-04-09T17:33:23.116Z,34.40
2023-04-09T17:35:50.131Z,34.00
2023-04-09T17:38:21.268Z,35.00
2023-04-09T17:40:48.524Z,35.40
2023-04-09T17:43:15.778Z,34.30
2023-04-09T17:45:42.790Z,34.80
2023-04-09T17:48:09.664Z,35.30
2023-04-09T17:50:39.658Z,34.70
2023-04-09T17:53:06.484Z,34.70
2023-04-09T17:55:33.487Z,34.40
2023-04-09T17:58:00.547Z,33.80
2023-04-09T18:00:27.616Z,34.60
2023-04-09T18:02:54.923Z,34.50
2023-04-09T18:05:23.307Z,34.50
2023-04-09T18:07:51.710Z,34.30
2023-04-09T18:10:19.687Z,34.40
2023-04-09T18:12:46.820Z,34.60
2023-04-09T18:15:13.775Z,34.80
2023-04-09T18:17:40.923Z,37.50
2023-04-09T18:20:08.467Z,36.70
2023-04-09T18:22:35.324Z,36.20
2023-04-09T18:25:02.350Z,36.60
2023-04-09T18:27:29.284Z,37.10
2023-04-09T18:29:57.367Z,37.40
2023-04-09T18:32:25.279Z,37.90
2023-04-09T18:34:53.025Z,37.80
2023-04-09T18:37:20.889Z,37.50
2023-04-09T18:39:47.960Z,38.80
2023-04-09T18:42:14.920Z,38.40
2023-04-09T18:44:42.554Z,38.20
2023-04-09T18:47:11.103Z,38.50
2023-04-09T18:49:38.229Z,39.10
2023-04-09T18:52:09.392Z,38.80
2023-04-09T18:54:37.384Z,39.20
2023-04-09T18:57:04.679Z,38.90
2023-04-09T18:59:34.383Z,39.50
2023-04-09T19:02:03.869Z,39.40
2023-04-09T19:04:36.460Z,39.50
2023-04-09T19:07:03.590Z,40.00
2023-04-09T19:09:30.829Z,39.50
2023-04-09T19:11:58.156Z,39.80
2023-04-09T19:14:25.883Z,40.20
2023-04-09T19:16:52.948Z,40.50
2023-04-09T19:19:20.075Z,40.80
2023-04-09T19:21:46.961Z,40.20
2023-04-09T19:24:13.879Z,40.40
2023-04-09T19:26:41.169Z,40.60
2023-04-09T19:29:08.205Z,39.50
2023-04-09T19:31:35.390Z,39.90
2023-04-09T19:34:02.535Z,40.70
2023-04-09T19:36:31.323Z,39.80
2023-04-09T19:38:58.465Z,40.00
2023-04-09T19:41:25.483Z,40.70
2023-04-09T19:43:52.742Z,40.50
2023-04-09T19:46:19.643Z,40.30
2023-04-09T19:48:47.868Z,40.80
2023-04-09T19:51:18.475Z,40.70
2023-04-09T19:53:47.349Z,40.10
2023-04-09T19:56:14.453Z,40.70
2023-04-09T19:58:43.255Z,40.10
2023-04-09T20:01:10.776Z,40.50
2023-04-09T20:03:38.026Z,40.90
2023-04-09T20:06:10.246Z,41.30
2023-04-09T20:08:38.400Z,41.50
2023-04-09T20:11:05.668Z,41.50
2023-04-09T20:13:33.406Z,41.40
2023-04-09T20:16:00.984Z,41.10
2023-04-09T20:18:28.809Z,40.80
2023-04-09T20:20:55.798Z,41.50
2023-04-09T20:23:22.714Z,41.00
2023-04-09T20:25:54.649Z,41.30
2023-04-09T20:28:22.236Z,41.30
2023-04-09T20:30:49.363Z,41.40
2023-04-09T20:33:17.629Z,42.20
2023-04-09T20:35:44.485Z,42.20
2023-04-09T20:38:11.501Z,41.70
2023-04-09T20:40:38.634Z,41.70
2023-04-09T20:43:05.644Z,41.50
2023-04-09T20:45:32.665Z,40.60
2023-04-09T20:48:00.531Z,40.90
2023-04-09T20:50:29.586Z,40.60
2023-04-09T20:52:59.205Z,40.60
2023-04-09T20:55:26.859Z,40.30
2023-04-09T20:57:58.604Z,40.20
2023-04-09T21:00:26.610Z,39.90
2023-04-09T21:02:54.270Z,39.80
2023-04-09T21:05:23.841Z,39.30
2023-04-09T21:07:52.251Z,39.00
2023-04-09T21:10:19.269Z,38.60
2023-04-09T21:12:46.759Z,37.40
2023-04-09T21:15:13.849Z,38.50
2023-04-09T21:17:40.996Z,39.40
2023-04-09T21:20:08.919Z,39.70
2023-04-09T21:22:36.341Z,39.20
2023-04-09T21:25:03.732Z,39.90
2023-04-09T21:27:31.302Z,39.70
2023-04-09T21:29:58.885Z,40.90
2023-04-09T21:32:26.096Z,41.40
2023-04-09T21:34:54.045Z,40.30
2023-04-09T21:37:21.036Z,40.20
2023-04-09T21:39:49.017Z,40.30
2023-04-09T21:42:16.130Z,40.50
2023-04-09T21:44:43.086Z,40.10
2023-04-09T21:47:12.002Z,39.40
2023-04-09T21:49:40.374Z,39.90
2023-04-09T21:52:14.340Z,37.90
2023-04-09T21:54:42.756Z,35.90
2023-04-09T21:57:10.498Z,36.50
2023-04-09T21:59:37.801Z,37.30
2023-04-09T22:02:05.647Z,37.90
2023-04-09T22:04:35.917Z,36.90
2023-04-09T22:07:03.397Z,36.60
2023-04-09T22:09:31.899Z,36.30
2023-04-09T22:11:59.655Z,36.00
2023-04-09T22:14:29.779Z,35.80
2023-04-09T22:16:58.533Z,35.90
2023-04-09T22:19:26.420Z,35.80
2023-04-09T22:21:54.841Z,35.90
2023-04-09T22:24:30.303Z,35.70
2023-04-09T22:26:59.147Z,35.60
2023-04-09T22:29:26.980Z,35.60
2023-04-09T22:31:55.138Z,35.40
2023-04-09T22:34:22.292Z,35.80
2023-04-09T22:36:49.732Z,35.20
2023-04-09T22:39:17.105Z,35.60
2023-04-09T22:41:44.131Z,35.60
2023-04-09T22:44:11.194Z,35.50
2023-04-09T22:46:38.330Z,35.50
2023-04-09T22:49:06.127Z,35.10
2023-04-09T22:51:36.428Z,34.70
2023-04-09T22:54:03.787Z,35.00
2023-04-09T22:56:32.062Z,34.80
2023-04-09T22:58:59.287Z,34.60
2023-04-09T23:01:27.368Z,34.60
2023-04-09T23:03:54.765Z,34.30
2023-04-09T23:06:22.724Z,34.40
2023-04-09T23:08:50.326Z,35.30
2023-04-09T23:11:17.317Z,35.70
2023-04-09T23:13:44.551Z,35.30
2023-04-09T23:16:11.846Z,35.40
2023-04-09T23:18:39.273Z,35.60
2023-04-09T23:21:10.833Z,34.60
2023-04-09T23:23:38.955Z,34.50
2023-04-09T23:26:06.509Z,34.80
2023-04-09T23:28:33.815Z,35.00
2023-04-09T23:31:00.846Z,34.80
2023-04-09T23:33:27.852Z,35.30
2023-04-09T23:35:54.949Z,34.30
2023-04-09T23:38:21.991Z,35.00
2023-04-09T23:40:49.431Z,34.60
2023-04-09T23:43:16.506Z,34.10
2023-04-09T23:45:44.508Z,34.10
2023-04-09T23:48:12.388Z,34.60
2023-04-09T23:50:41.021Z,35.00
2023-04-09T23:53:08.875Z,34.60
2023-04-09T23:55:40.960Z,34.30
2023-04-09T23:58:09.903Z,34.90
